createdAt,value
2018-06-13T00:00:07.541Z,0
2018-06-13T00:01:16.187Z,0
2018-06-13T00:02:24.835Z,0
2018-06-13T00:03:33.746Z,0
2018-06-13T00:04:42.392Z,0
2018-06-13T00:05:51.032Z,0
2018-06-13T00:06:59.676Z,0
2018-06-13T00:08:08.588Z,0
2018-06-13T00:09:17.275Z,0
2018-06-13T00:10:25.877Z,0
2018-06-13T00:11:34.524Z,0
2018-06-13T00:12:43.170Z,0
2018-06-13T00:13:52.084Z,0
2018-06-13T00:15:00.722Z,0
2018-06-13T00:16:09.634Z,0
2018-06-13T00:17:18.281Z,0
2018-06-13T00:18:26.926Z,0
2018-06-13T00:19:35.569Z,0
2018-06-13T00:20:44.216Z,0
2018-06-13T00:21:52.857Z,0
2018-06-13T00:23:01.499Z,0
2018-06-13T00:24:10.153Z,0
2018-06-13T00:25:19.316Z,0
2018-06-13T00:26:27.969Z,0
2018-06-13T00:27:36.870Z,0
2018-06-13T00:28:45.525Z,0
2018-06-13T00:29:54.167Z,0
2018-06-13T00:31:02.818Z,0
2018-06-13T00:32:11.452Z,0
2018-06-13T00:33:20.112Z,0
2018-06-13T00:34:29.020Z,0
2018-06-13T00:35:37.668Z,0
2018-06-13T00:36:46.596Z,0
2018-06-13T00:37:55.237Z,0
2018-06-13T00:39:03.890Z,0
2018-06-13T00:40:12.537Z,0
2018-06-13T00:41:21.184Z,0
2018-06-13T00:42:30.082Z,0
2018-06-13T00:43:39.259Z,0
2018-06-13T00:44:48.165Z,0
2018-06-13T00:45:56.816Z,0
2018-06-13T00:47:05.544Z,0
2018-06-13T00:48:14.102Z,0
2018-06-13T00:49:22.747Z,0
2018-06-13T00:50:31.658Z,0
2018-06-13T00:51:40.297Z,0
2018-06-13T00:52:48.945Z,0
2018-06-13T00:53:57.589Z,0
2018-06-13T00:55:06.246Z,0
2018-06-13T00:56:14.892Z,0
2018-06-13T00:57:23.533Z,0
2018-06-13T00:58:32.175Z,0
2018-06-13T00:59:40.819Z,0
2018-06-13T01:00:49.737Z,0
2018-06-13T01:01:58.375Z,0
2018-06-13T01:03:07.029Z,0
2018-06-13T01:04:15.666Z,0
2018-06-13T01:05:24.584Z,0
2018-06-13T01:06:33.224Z,0
2018-06-13T01:07:42.140Z,0
2018-06-13T01:08:50.777Z,0
2018-06-13T01:09:59.434Z,0
2018-06-13T01:11:08.075Z,0
2018-06-13T01:12:16.720Z,0
2018-06-13T01:13:25.355Z,0
2018-06-13T01:14:34.003Z,0
2018-06-13T01:15:42.934Z,0
2018-06-13T01:16:51.849Z,0
2018-06-13T01:18:00.759Z,0
2018-06-13T01:19:09.661Z,0
2018-06-13T01:20:18.311Z,0
2018-06-13T01:21:26.950Z,0
2018-06-13T01:22:35.605Z,0
2018-06-13T01:23:44.241Z,0
2018-06-13T01:24:53.146Z,0
2018-06-13T01:26:01.791Z,0
2018-06-13T01:27:10.440Z,0
2018-06-13T01:28:19.080Z,0
2018-06-13T01:29:27.728Z,0
2018-06-13T01:30:36.374Z,0
2018-06-13T01:31:45.032Z,0
2018-06-13T01:32:53.674Z,0
2018-06-13T01:34:02.321Z,0
2018-06-13T01:35:10.964Z,0
2018-06-13T01:36:19.606Z,0
2018-06-13T01:37:28.259Z,0
2018-06-13T01:38:36.905Z,0
2018-06-13T01:39:45.552Z,0
2018-06-13T01:40:54.190Z,0
2018-06-13T01:42:02.840Z,0
2018-06-13T01:43:11.485Z,0
2018-06-13T01:44:20.129Z,0
2018-06-13T01:45:28.769Z,0
2018-06-13T01:46:37.421Z,0
2018-06-13T01:47:46.063Z,0
2018-06-13T01:48:54.709Z,0
2018-06-13T01:50:03.359Z,0
2018-06-13T01:51:12.003Z,0
2018-06-13T01:52:20.646Z,0
2018-06-13T01:53:29.292Z,0
2018-06-13T01:54:37.938Z,0
2018-06-13T01:55:46.579Z,0
2018-06-13T01:56:55.223Z,0
2018-06-13T01:58:03.869Z,0
2018-06-13T01:59:12.519Z,0
2018-06-13T02:00:21.158Z,0
2018-06-13T02:01:29.804Z,0
2018-06-13T02:02:38.447Z,0
2018-06-13T02:03:47.096Z,0
2018-06-13T02:04:55.740Z,0
2018-06-13T02:06:04.654Z,0
2018-06-13T02:07:13.296Z,0
2018-06-13T02:08:21.948Z,0
2018-06-13T02:09:30.854Z,0
2018-06-13T02:10:39.495Z,0
2018-06-13T02:11:48.137Z,0
2018-06-13T02:12:56.780Z,0
2018-06-13T02:14:05.430Z,0
2018-06-13T02:15:14.339Z,0
2018-06-13T02:16:22.984Z,0
2018-06-13T02:17:31.625Z,0
2018-06-13T02:18:40.539Z,0
2018-06-13T02:19:49.188Z,0
2018-06-13T02:20:58.092Z,0
2018-06-13T02:22:06.737Z,0
2018-06-13T02:23:15.377Z,0
2018-06-13T02:24:24.024Z,0
2018-06-13T02:25:32.670Z,0
2018-06-13T02:26:41.321Z,0
2018-06-13T02:27:49.964Z,0
2018-06-13T02:28:58.613Z,0
2018-06-13T02:30:07.520Z,0
2018-06-13T02:31:16.162Z,0
2018-06-13T02:32:24.814Z,0
2018-06-13T02:33:33.459Z,0
2018-06-13T02:34:42.112Z,0
2018-06-13T02:35:51.012Z,0
2018-06-13T02:36:59.664Z,0
2018-06-13T02:38:08.310Z,0
2018-06-13T02:39:16.959Z,4
2018-06-13T02:40:25.866Z,4
2018-06-13T02:41:34.516Z,0
2018-06-13T02:42:43.160Z,0
2018-06-13T02:43:51.815Z,4
2018-06-13T02:45:00.460Z,4
2018-06-13T02:46:09.109Z,0
2018-06-13T02:47:18.282Z,4
2018-06-13T02:48:26.932Z,4
2018-06-13T02:49:35.845Z,4
2018-06-13T02:50:44.756Z,4
2018-06-13T02:51:53.665Z,4
2018-06-13T02:53:02.573Z,4
2018-06-13T02:54:11.489Z,8
2018-06-13T02:55:20.144Z,12
2018-06-13T02:56:28.790Z,12
2018-06-13T02:57:37.454Z,16
2018-06-13T02:58:46.916Z,16
2018-06-13T02:59:55.903Z,16
2018-06-13T03:01:04.742Z,20
2018-06-13T03:02:13.674Z,20
2018-06-13T03:03:22.589Z,20
2018-06-13T03:04:31.232Z,20
2018-06-13T03:05:40.140Z,20
2018-06-13T03:06:49.044Z,20
2018-06-13T03:07:57.695Z,24
2018-06-13T03:09:06.349Z,20
2018-06-13T03:10:15.255Z,24
2018-06-13T03:11:23.906Z,24
2018-06-13T03:12:32.812Z,24
2018-06-13T03:13:41.469Z,24
2018-06-13T03:14:50.116Z,28
2018-06-13T03:15:58.770Z,28
2018-06-13T03:17:07.409Z,36
2018-06-13T03:18:16.060Z,36
2018-06-13T03:19:24.706Z,44
2018-06-13T03:20:33.352Z,48
2018-06-13T03:21:41.988Z,52
2018-06-13T03:22:50.636Z,56
2018-06-13T03:23:59.286Z,64
2018-06-13T03:25:07.932Z,64
2018-06-13T03:26:16.584Z,64
2018-06-13T03:27:25.219Z,64
2018-06-13T03:28:33.870Z,72
2018-06-13T03:29:42.513Z,72
2018-06-13T03:30:51.454Z,72
2018-06-13T03:32:00.629Z,72
2018-06-13T03:33:09.289Z,72
2018-06-13T03:34:17.929Z,80
2018-06-13T03:35:26.594Z,84
2018-06-13T03:36:35.234Z,88
2018-06-13T03:37:43.877Z,96
2018-06-13T03:38:52.521Z,112
2018-06-13T03:40:01.175Z,116
2018-06-13T03:41:09.878Z,112
2018-06-13T03:42:18.454Z,108
2018-06-13T03:43:27.097Z,108
2018-06-13T03:44:35.739Z,112
2018-06-13T03:45:44.391Z,128
2018-06-13T03:46:53.296Z,172
2018-06-13T03:48:01.946Z,208
2018-06-13T03:49:10.844Z,236
2018-06-13T03:50:19.767Z,260
2018-06-13T03:51:28.409Z,264
2018-06-13T03:52:37.057Z,268
2018-06-13T03:53:45.696Z,280
2018-06-13T03:54:54.905Z,280
2018-06-13T03:56:03.550Z,260
2018-06-13T03:57:12.456Z,260
2018-06-13T03:58:21.093Z,276
2018-06-13T03:59:29.999Z,280
2018-06-13T04:00:38.651Z,284
2018-06-13T04:01:47.597Z,288
2018-06-13T04:02:56.204Z,300
2018-06-13T04:04:04.841Z,320
2018-06-13T04:05:13.487Z,344
2018-06-13T04:06:22.128Z,356
2018-06-13T04:07:30.784Z,332
2018-06-13T04:08:39.418Z,300
2018-06-13T04:09:48.072Z,284
2018-06-13T04:10:56.712Z,300
2018-06-13T04:12:05.364Z,344
2018-06-13T04:13:14.268Z,400
2018-06-13T04:14:22.916Z,464
2018-06-13T04:15:31.556Z,564
2018-06-13T04:16:40.209Z,632
2018-06-13T04:17:49.126Z,668
2018-06-13T04:18:57.762Z,712
2018-06-13T04:20:06.692Z,692
2018-06-13T04:21:15.337Z,636
2018-06-13T04:22:24.011Z,552
2018-06-13T04:23:32.631Z,524
2018-06-13T04:24:41.280Z,488
2018-06-13T04:25:49.915Z,544
2018-06-13T04:26:58.569Z,604
2018-06-13T04:28:07.211Z,608
2018-06-13T04:29:16.131Z,616
2018-06-13T04:30:24.766Z,548
2018-06-13T04:31:33.421Z,496
2018-06-13T04:32:42.417Z,496
2018-06-13T04:33:51.006Z,528
2018-06-13T04:34:59.640Z,604
2018-06-13T04:36:08.554Z,564
2018-06-13T04:37:17.205Z,520
2018-06-13T04:38:26.113Z,556
2018-06-13T04:39:35.029Z,556
2018-06-13T04:40:43.658Z,464
2018-06-13T04:41:52.362Z,456
2018-06-13T04:43:00.953Z,548
2018-06-13T04:44:09.866Z,656
2018-06-13T04:45:18.503Z,728
2018-06-13T04:46:27.154Z,748
2018-06-13T04:47:35.794Z,756
2018-06-13T04:48:44.449Z,816
2018-06-13T04:49:53.087Z,936
2018-06-13T04:51:01.731Z,976
2018-06-13T04:52:10.375Z,952
2018-06-13T04:53:19.050Z,908
2018-06-13T04:54:28.217Z,980
2018-06-13T04:55:36.855Z,1124
2018-06-13T04:56:45.500Z,1292
2018-06-13T04:57:54.145Z,1440
2018-06-13T04:59:02.802Z,1576
2018-06-13T05:00:11.441Z,1672
2018-06-13T05:01:20.089Z,1700
2018-06-13T05:02:28.725Z,1736
2018-06-13T05:03:37.377Z,1736
2018-06-13T05:04:46.810Z,1740
2018-06-13T05:05:55.461Z,1772
2018-06-13T05:07:04.099Z,1780
2018-06-13T05:08:12.753Z,1776
2018-06-13T05:09:21.396Z,1820
2018-06-13T05:10:30.042Z,1876
2018-06-13T05:11:38.670Z,1904
2018-06-13T05:12:47.578Z,1900
2018-06-13T05:13:56.228Z,1908
2018-06-13T05:15:04.876Z,1940
2018-06-13T05:16:13.523Z,1936
2018-06-13T05:17:22.159Z,1856
2018-06-13T05:18:30.813Z,1828
2018-06-13T05:19:39.456Z,1668
2018-06-13T05:20:48.104Z,1396
2018-06-13T05:21:56.744Z,1292
2018-06-13T05:23:05.388Z,1232
2018-06-13T05:24:14.034Z,1272
2018-06-13T05:25:22.682Z,1400
2018-06-13T05:26:31.325Z,1516
2018-06-13T05:27:39.981Z,1636
2018-06-13T05:28:48.626Z,1660
2018-06-13T05:29:57.538Z,1780
2018-06-13T05:31:06.180Z,1956
2018-06-13T05:32:14.824Z,2052
2018-06-13T05:33:23.467Z,2148
2018-06-13T05:34:32.176Z,2192
2018-06-13T05:35:40.765Z,2252
2018-06-13T05:36:49.411Z,2320
2018-06-13T05:37:58.065Z,2296
2018-06-13T05:39:06.696Z,2256
2018-06-13T05:40:15.347Z,2140
2018-06-13T05:41:24.259Z,1908
2018-06-13T05:42:32.904Z,1848
2018-06-13T05:43:41.546Z,1776
2018-06-13T05:44:50.202Z,1664
2018-06-13T05:45:59.370Z,1728
2018-06-13T05:47:08.019Z,1668
2018-06-13T05:48:16.661Z,1688
2018-06-13T05:49:25.310Z,1732
2018-06-13T05:50:33.954Z,1712
2018-06-13T05:51:42.603Z,1680
2018-06-13T05:52:51.250Z,1648
2018-06-13T05:53:59.891Z,1636
2018-06-13T05:55:08.813Z,1600
2018-06-13T05:56:17.457Z,1540
2018-06-13T05:57:26.112Z,1512
2018-06-13T05:58:34.778Z,1516
2018-06-13T05:59:43.691Z,1580
2018-06-13T06:00:52.338Z,1676
2018-06-13T06:02:00.988Z,1796
2018-06-13T06:03:09.628Z,1956
2018-06-13T06:04:18.281Z,2120
2018-06-13T06:05:26.920Z,2228
2018-06-13T06:06:35.833Z,2356
2018-06-13T06:07:44.474Z,2552
2018-06-13T06:08:53.119Z,2760
2018-06-13T06:10:01.762Z,2916
2018-06-13T06:11:10.402Z,3016
2018-06-13T06:12:19.056Z,2964
2018-06-13T06:13:27.699Z,2804
2018-06-13T06:14:36.344Z,2680
2018-06-13T06:15:44.986Z,2652
2018-06-13T06:16:53.633Z,2796
2018-06-13T06:18:02.285Z,2880
2018-06-13T06:19:11.196Z,2780
2018-06-13T06:20:19.847Z,2732
2018-06-13T06:21:28.505Z,2624
2018-06-13T06:22:37.153Z,2608
2018-06-13T06:23:46.069Z,2776
2018-06-13T06:24:54.719Z,2956
2018-06-13T06:26:03.365Z,3000
2018-06-13T06:27:12.266Z,3088
2018-06-13T06:28:20.911Z,3068
2018-06-13T06:29:29.554Z,3084
2018-06-13T06:30:38.486Z,3004
2018-06-13T06:31:47.417Z,2820
2018-06-13T06:32:56.062Z,2664
2018-06-13T06:34:04.703Z,2612
2018-06-13T06:35:13.624Z,2736
2018-06-13T06:36:22.269Z,2848
2018-06-13T06:37:30.915Z,2960
2018-06-13T06:38:39.559Z,2976
2018-06-13T06:39:48.480Z,2992
2018-06-13T06:40:57.395Z,3012
2018-06-13T06:42:06.060Z,3000
2018-06-13T06:43:14.693Z,3096
2018-06-13T06:44:23.354Z,3308
2018-06-13T06:45:31.999Z,3444
2018-06-13T06:46:40.648Z,3748
2018-06-13T06:47:49.297Z,4028
2018-06-13T06:48:57.939Z,4228
2018-06-13T06:50:06.865Z,4476
2018-06-13T06:51:15.515Z,4668
2018-06-13T06:52:24.163Z,4752
2018-06-13T06:53:32.803Z,4764
2018-06-13T06:54:41.450Z,4912
2018-06-13T06:55:50.097Z,5104
2018-06-13T06:56:58.749Z,5208
2018-06-13T06:58:07.388Z,5184
2018-06-13T06:59:16.035Z,5048
2018-06-13T07:00:24.679Z,5084
2018-06-13T07:01:33.329Z,5328
2018-06-13T07:02:42.002Z,5516
2018-06-13T07:03:51.238Z,5184
2018-06-13T07:04:59.881Z,4888
2018-06-13T07:06:08.790Z,5536
2018-06-13T07:07:17.445Z,5832
2018-06-13T07:08:26.091Z,5684
2018-06-13T07:09:35.009Z,5600
2018-06-13T07:10:43.651Z,4980
2018-06-13T07:11:52.301Z,4852
2018-06-13T07:13:00.945Z,5700
2018-06-13T07:14:09.855Z,5548
2018-06-13T07:15:18.494Z,5216
2018-06-13T07:16:27.153Z,5112
2018-06-13T07:17:36.060Z,4920
2018-06-13T07:18:44.708Z,5396
2018-06-13T07:19:53.343Z,5136
2018-06-13T07:21:01.989Z,3872
2018-06-13T07:22:10.906Z,3532
2018-06-13T07:23:19.557Z,4544
2018-06-13T07:24:28.206Z,5092
2018-06-13T07:25:36.844Z,5200
2018-06-13T07:26:45.498Z,4532
2018-06-13T07:27:54.141Z,3324
2018-06-13T07:29:03.059Z,3716
2018-06-13T07:30:11.698Z,4424
2018-06-13T07:31:20.621Z,4824
2018-06-13T07:32:29.263Z,5096
2018-06-13T07:33:37.953Z,5616
2018-06-13T07:34:46.580Z,5616
2018-06-13T07:35:55.238Z,5060
2018-06-13T07:37:03.881Z,4272
2018-06-13T07:38:12.540Z,4096
2018-06-13T07:39:21.183Z,3836
2018-06-13T07:40:30.091Z,3528
2018-06-13T07:41:38.739Z,3328
2018-06-13T07:42:47.380Z,3484
2018-06-13T07:43:56.038Z,3516
2018-06-13T07:45:04.687Z,3684
2018-06-13T07:46:13.605Z,3280
2018-06-13T07:47:22.246Z,2804
2018-06-13T07:48:30.906Z,2760
2018-06-13T07:49:39.553Z,2900
2018-06-13T07:50:48.199Z,2940
2018-06-13T07:51:56.838Z,3100
2018-06-13T07:53:05.498Z,3724
2018-06-13T07:54:14.139Z,4404
2018-06-13T07:55:22.790Z,4916
2018-06-13T07:56:31.707Z,5068
2018-06-13T07:57:40.356Z,5016
2018-06-13T07:58:49.008Z,4776
2018-06-13T07:59:57.655Z,4124
2018-06-13T08:01:06.306Z,3424
2018-06-13T08:02:14.977Z,2936
2018-06-13T08:03:23.908Z,2976
2018-06-13T08:04:32.821Z,2740
2018-06-13T08:05:41.475Z,2272
2018-06-13T08:06:50.113Z,1832
2018-06-13T08:07:59.032Z,2148
2018-06-13T08:09:07.947Z,2080
2018-06-13T08:10:16.609Z,1648
2018-06-13T08:11:25.242Z,1304
2018-06-13T08:12:33.896Z,1228
2018-06-13T08:13:42.812Z,1328
2018-06-13T08:14:51.466Z,1324
2018-06-13T08:16:00.111Z,1480
2018-06-13T08:17:08.758Z,1848
2018-06-13T08:18:17.404Z,1984
2018-06-13T08:19:26.050Z,2000
2018-06-13T08:20:34.700Z,1892
2018-06-13T08:21:43.347Z,1900
2018-06-13T08:22:51.994Z,2108
2018-06-13T08:24:00.637Z,2108
2018-06-13T08:25:09.590Z,2100
2018-06-13T08:26:18.243Z,2360
2018-06-13T08:27:26.887Z,2564
2018-06-13T08:28:35.527Z,2664
2018-06-13T08:29:44.226Z,2776
2018-06-13T08:30:52.947Z,2968
2018-06-13T08:32:01.673Z,3284
2018-06-13T08:33:10.316Z,3544
2018-06-13T08:34:18.966Z,3684
2018-06-13T08:35:27.885Z,3644
2018-06-13T08:36:36.541Z,3668
2018-06-13T08:37:45.191Z,3636
2018-06-13T08:38:53.829Z,3320
2018-06-13T08:40:02.476Z,3384
2018-06-13T08:41:11.156Z,3368
2018-06-13T08:42:20.128Z,3080
2018-06-13T08:43:28.784Z,2632
2018-06-13T08:44:37.431Z,2272
2018-06-13T08:45:46.314Z,2348
2018-06-13T08:46:55.296Z,2256
2018-06-13T08:48:04.365Z,2132
2018-06-13T08:49:13.106Z,2280
2018-06-13T08:50:21.751Z,2532
2018-06-13T08:51:30.676Z,3048
2018-06-13T08:52:39.322Z,3712
2018-06-13T08:53:47.968Z,4732
2018-06-13T08:54:56.613Z,5660
2018-06-13T08:56:05.277Z,6488
2018-06-13T08:57:13.924Z,7296
2018-06-13T08:58:22.814Z,7664
2018-06-13T08:59:31.487Z,7740
2018-06-13T09:00:40.128Z,8004
2018-06-13T09:01:49.045Z,7876
2018-06-13T09:02:57.693Z,7560
2018-06-13T09:04:06.714Z,7212
2018-06-13T09:05:15.534Z,6692
2018-06-13T09:06:24.348Z,6320
2018-06-13T09:07:33.220Z,6320
2018-06-13T09:08:42.052Z,6260
2018-06-13T09:09:50.781Z,6176
2018-06-13T09:10:59.462Z,6136
2018-06-13T09:12:08.135Z,6024
2018-06-13T09:13:17.374Z,6040
2018-06-13T09:14:26.031Z,6008
2018-06-13T09:15:34.665Z,6104
2018-06-13T09:16:43.319Z,6164
2018-06-13T09:17:51.962Z,6420
2018-06-13T09:19:00.622Z,6676
2018-06-13T09:20:09.260Z,6924
2018-06-13T09:21:17.911Z,7200
2018-06-13T09:22:26.856Z,7448
2018-06-13T09:23:35.870Z,7644
2018-06-13T09:24:44.505Z,7744
2018-06-13T09:25:53.157Z,7988
2018-06-13T09:27:01.801Z,8148
2018-06-13T09:28:10.721Z,8300
2018-06-13T09:29:19.369Z,8360
2018-06-13T09:30:28.010Z,8284
2018-06-13T09:31:36.924Z,8320
2018-06-13T09:32:45.854Z,8276
2018-06-13T09:33:54.513Z,8400
2018-06-13T09:35:03.415Z,8544
2018-06-13T09:36:12.336Z,8684
2018-06-13T09:37:21.025Z,8840
2018-06-13T09:38:29.627Z,9056
2018-06-13T09:39:38.270Z,9124
2018-06-13T09:40:46.922Z,9132
2018-06-13T09:41:55.561Z,8728
2018-06-13T09:43:04.224Z,8108
2018-06-13T09:44:12.868Z,7116
2018-06-13T09:45:21.519Z,6112
2018-06-13T09:46:30.161Z,5508
2018-06-13T09:47:38.810Z,5904
2018-06-13T09:48:47.463Z,6372
2018-06-13T09:49:56.112Z,7016
2018-06-13T09:51:04.762Z,7440
2018-06-13T09:52:13.671Z,7740
2018-06-13T09:53:22.323Z,7892
2018-06-13T09:54:30.966Z,7888
2018-06-13T09:55:39.628Z,7900
2018-06-13T09:56:48.359Z,8032
2018-06-13T09:57:56.924Z,7884
2018-06-13T09:59:05.566Z,7844
2018-06-13T10:00:14.225Z,7792
2018-06-13T10:01:22.865Z,7716
2018-06-13T10:02:31.517Z,7356
2018-06-13T10:03:40.165Z,6896
2018-06-13T10:04:49.558Z,6644
2018-06-13T10:05:58.205Z,6436
2018-06-13T10:07:06.850Z,6036
2018-06-13T10:08:15.494Z,5840
2018-06-13T10:09:24.139Z,5848
2018-06-13T10:10:32.797Z,5868
2018-06-13T10:11:41.441Z,5560
2018-06-13T10:12:50.087Z,5120
2018-06-13T10:13:59.012Z,4944
2018-06-13T10:15:07.653Z,5152
2018-06-13T10:16:16.304Z,5636
2018-06-13T10:17:24.949Z,6056
2018-06-13T10:18:33.654Z,5900
2018-06-13T10:19:42.249Z,5772
2018-06-13T10:20:51.431Z,5596
2018-06-13T10:22:00.079Z,5872
2018-06-13T10:23:08.741Z,6076
2018-06-13T10:24:17.387Z,6236
2018-06-13T10:25:26.944Z,6380
2018-06-13T10:26:35.894Z,6484
2018-06-13T10:27:44.777Z,6364
2018-06-13T10:28:53.501Z,6176
2018-06-13T10:30:02.081Z,5564
2018-06-13T10:31:10.734Z,5248
2018-06-13T10:32:19.378Z,5148
2018-06-13T10:33:28.299Z,5208
2018-06-13T10:34:36.943Z,5272
2018-06-13T10:35:45.597Z,5396
2018-06-13T10:36:54.238Z,5344
2018-06-13T10:38:02.896Z,5400
2018-06-13T10:39:11.543Z,5732
2018-06-13T10:40:20.193Z,6168
2018-06-13T10:41:29.099Z,6344
2018-06-13T10:42:37.750Z,6392
2018-06-13T10:43:46.403Z,6624
2018-06-13T10:44:55.320Z,7100
2018-06-13T10:46:03.969Z,7444
2018-06-13T10:47:12.609Z,7616
2018-06-13T10:48:21.265Z,7480
2018-06-13T10:49:29.904Z,7152
2018-06-13T10:50:38.569Z,6404
2018-06-13T10:51:47.208Z,5608
2018-06-13T10:52:55.865Z,5396
2018-06-13T10:54:04.517Z,7528
2018-06-13T10:55:13.438Z,8432
2018-06-13T10:56:22.076Z,8932
2018-06-13T10:57:30.725Z,9028
2018-06-13T10:58:39.369Z,7824
2018-06-13T10:59:48.296Z,7460
2018-06-13T11:00:56.948Z,6680
2018-06-13T11:02:05.594Z,5624
2018-06-13T11:03:14.242Z,4560
2018-06-13T11:04:23.159Z,3664
2018-06-13T11:05:31.828Z,2900
2018-06-13T11:06:40.734Z,2500
2018-06-13T11:07:49.393Z,2260
2018-06-13T11:08:58.034Z,2312
2018-06-13T11:10:06.697Z,2448
2018-06-13T11:11:15.616Z,2580
2018-06-13T11:12:24.527Z,2912
2018-06-13T11:13:33.172Z,3284
2018-06-13T11:14:41.826Z,3680
2018-06-13T11:15:50.471Z,3992
2018-06-13T11:16:59.122Z,4220
2018-06-13T11:18:07.766Z,4392
2018-06-13T11:19:16.415Z,4376
2018-06-13T11:20:25.092Z,4228
2018-06-13T11:21:33.717Z,4096
2018-06-13T11:22:42.630Z,3924
2018-06-13T11:23:51.275Z,3860
2018-06-13T11:24:59.922Z,3940
2018-06-13T11:26:09.110Z,4148
2018-06-13T11:27:17.757Z,4368
2018-06-13T11:28:26.401Z,4520
2018-06-13T11:29:35.048Z,4588
2018-06-13T11:30:43.967Z,4740
2018-06-13T11:31:52.620Z,4880
2018-06-13T11:33:01.525Z,4956
2018-06-13T11:34:10.175Z,5008
2018-06-13T11:35:19.087Z,5156
2018-06-13T11:36:27.740Z,5324
2018-06-13T11:37:36.387Z,5564
2018-06-13T11:38:45.037Z,5872
2018-06-13T11:39:53.682Z,6068
2018-06-13T11:41:02.327Z,6228
2018-06-13T11:42:10.984Z,6420
2018-06-13T11:43:19.631Z,6600
2018-06-13T11:44:28.547Z,6696
2018-06-13T11:45:37.452Z,6720
2018-06-13T11:46:46.106Z,6796
2018-06-13T11:47:55.023Z,6920
2018-06-13T11:49:03.935Z,7044
2018-06-13T11:50:12.580Z,7180
2018-06-13T11:51:21.233Z,7340
2018-06-13T11:52:30.159Z,7544
2018-06-13T11:53:38.843Z,7556
2018-06-13T11:54:47.455Z,7492
2018-06-13T11:55:56.112Z,7384
2018-06-13T11:57:04.758Z,7280
2018-06-13T11:58:13.409Z,7196
2018-06-13T11:59:22.061Z,7308
2018-06-13T12:00:30.749Z,7860
2018-06-13T12:01:39.364Z,8336
2018-06-13T12:02:48.004Z,8784
2018-06-13T12:03:56.660Z,10716
2018-06-13T12:05:05.575Z,9000
2018-06-13T12:06:14.556Z,7864
2018-06-13T12:07:23.207Z,7652
2018-06-13T12:08:31.853Z,6684
2018-06-13T12:09:40.513Z,5764
2018-06-13T12:10:49.445Z,4820
2018-06-13T12:11:58.098Z,4736
2018-06-13T12:13:06.742Z,5276
2018-06-13T12:14:15.654Z,5816
2018-06-13T12:15:24.311Z,6280
2018-06-13T12:16:32.982Z,6736
2018-06-13T12:17:41.617Z,7076
2018-06-13T12:18:50.259Z,7136
2018-06-13T12:19:58.913Z,7228
2018-06-13T12:21:07.557Z,7288
2018-06-13T12:22:16.215Z,7384
2018-06-13T12:23:24.853Z,7380
2018-06-13T12:24:33.513Z,7248
2018-06-13T12:25:42.154Z,7096
2018-06-13T12:26:50.818Z,6784
2018-06-13T12:27:59.719Z,6360
2018-06-13T12:29:08.369Z,6308
2018-06-13T12:30:17.543Z,6580
2018-06-13T12:31:26.201Z,7068
2018-06-13T12:32:34.847Z,8012
2018-06-13T12:33:43.752Z,8076
2018-06-13T12:34:52.401Z,7888
2018-06-13T12:36:01.049Z,7648
2018-06-13T12:37:09.710Z,6692
2018-06-13T12:38:18.355Z,5668
2018-06-13T12:39:27.011Z,5300
2018-06-13T12:40:35.648Z,5512
2018-06-13T12:41:44.314Z,5524
2018-06-13T12:42:52.960Z,5376
2018-06-13T12:44:01.617Z,5080
2018-06-13T12:45:10.260Z,4984
2018-06-13T12:46:19.185Z,4952
2018-06-13T12:47:27.832Z,4736
2018-06-13T12:48:36.495Z,4636
2018-06-13T12:49:45.132Z,4596
2018-06-13T12:50:53.835Z,4620
2018-06-13T12:52:02.439Z,4872
2018-06-13T12:53:11.088Z,5200
2018-06-13T12:54:19.738Z,5660
2018-06-13T12:55:28.380Z,5828
2018-06-13T12:56:37.297Z,6024
2018-06-13T12:57:45.944Z,6176
2018-06-13T12:58:54.689Z,6196
2018-06-13T13:00:03.608Z,6352
2018-06-13T13:01:12.259Z,6500
2018-06-13T13:02:20.918Z,6660
2018-06-13T13:03:29.565Z,6872
2018-06-13T13:04:38.226Z,7032
2018-06-13T13:05:46.863Z,7148
2018-06-13T13:06:55.512Z,7236
2018-06-13T13:08:04.434Z,7308
2018-06-13T13:09:13.339Z,7316
2018-06-13T13:10:21.990Z,7620
2018-06-13T13:11:30.978Z,7592
2018-06-13T13:12:39.553Z,7512
2018-06-13T13:13:48.211Z,7408
2018-06-13T13:14:56.866Z,7396
2018-06-13T13:16:05.514Z,7380
2018-06-13T13:17:14.425Z,7492
2018-06-13T13:18:23.080Z,7492
2018-06-13T13:19:31.730Z,7456
2018-06-13T13:20:40.378Z,7536
2018-06-13T13:21:49.022Z,7624
2018-06-13T13:22:57.680Z,7252
2018-06-13T13:24:06.865Z,6836
2018-06-13T13:25:15.517Z,6712
2018-06-13T13:26:24.161Z,6764
2018-06-13T13:27:32.815Z,6872
2018-06-13T13:28:41.728Z,6928
2018-06-13T13:29:50.381Z,6888
2018-06-13T13:30:59.032Z,6620
2018-06-13T13:32:07.678Z,6448
2018-06-13T13:33:16.326Z,6688
2018-06-13T13:34:24.977Z,6788
2018-06-13T13:35:33.635Z,6972
2018-06-13T13:36:42.280Z,7076
2018-06-13T13:37:50.928Z,7000
2018-06-13T13:38:59.582Z,6876
2018-06-13T13:40:08.236Z,6848
2018-06-13T13:41:17.146Z,6764
2018-06-13T13:42:26.062Z,6660
2018-06-13T13:43:34.711Z,6512
2018-06-13T13:44:43.365Z,6472
2018-06-13T13:45:52.151Z,6536
2018-06-13T13:47:00.665Z,6588
2018-06-13T13:48:09.313Z,6632
2018-06-13T13:49:17.960Z,6628
2018-06-13T13:50:26.616Z,6272
2018-06-13T13:51:35.277Z,5784
2018-06-13T13:52:43.924Z,5364
2018-06-13T13:53:52.581Z,5328
2018-06-13T13:55:01.225Z,6200
2018-06-13T13:56:09.875Z,6132
2018-06-13T13:57:18.527Z,6712
2018-06-13T13:58:27.174Z,6984
2018-06-13T13:59:35.828Z,6952
2018-06-13T14:00:44.479Z,6520
2018-06-13T14:01:53.136Z,6368
2018-06-13T14:03:01.777Z,4780
2018-06-13T14:04:10.431Z,3484
2018-06-13T14:05:19.084Z,3300
2018-06-13T14:06:27.733Z,4108
2018-06-13T14:07:36.381Z,4956
2018-06-13T14:08:45.036Z,5300
2018-06-13T14:09:53.686Z,6468
2018-06-13T14:11:02.600Z,7064
2018-06-13T14:12:11.271Z,7564
2018-06-13T14:13:19.901Z,6224
2018-06-13T14:14:28.552Z,5920
2018-06-13T14:15:37.203Z,5792
2018-06-13T14:16:45.853Z,5704
2018-06-13T14:17:54.503Z,5704
2018-06-13T14:19:03.148Z,5696
2018-06-13T14:20:11.801Z,5744
2018-06-13T14:21:20.448Z,5872
2018-06-13T14:22:29.209Z,6236
2018-06-13T14:23:37.795Z,6140
2018-06-13T14:24:46.403Z,6096
2018-06-13T14:25:55.058Z,6156
2018-06-13T14:27:04.231Z,5920
2018-06-13T14:28:13.145Z,5576
2018-06-13T14:29:21.795Z,5360
2018-06-13T14:30:30.450Z,5408
2018-06-13T14:31:39.098Z,5440
2018-06-13T14:32:47.747Z,5956
2018-06-13T14:33:56.397Z,4752
2018-06-13T14:35:05.321Z,3716
2018-06-13T14:36:14.231Z,3568
2018-06-13T14:37:23.521Z,3552
2018-06-13T14:38:32.123Z,3492
2018-06-13T14:39:40.776Z,3572
2018-06-13T14:40:49.423Z,3516
2018-06-13T14:41:58.078Z,3516
2018-06-13T14:43:06.720Z,3576
2018-06-13T14:44:15.370Z,3524
2018-06-13T14:45:24.023Z,3436
2018-06-13T14:46:32.675Z,3388
2018-06-13T14:47:41.323Z,3248
2018-06-13T14:48:49.972Z,3260
2018-06-13T14:49:58.631Z,3516
2018-06-13T14:51:07.283Z,3748
2018-06-13T14:52:15.932Z,3812
2018-06-13T14:53:24.577Z,3768
2018-06-13T14:54:33.231Z,3780
2018-06-13T14:55:41.878Z,3976
2018-06-13T14:56:50.602Z,4252
2018-06-13T14:57:59.177Z,4540
2018-06-13T14:59:08.090Z,4732
2018-06-13T15:00:16.739Z,4888
2018-06-13T15:01:25.395Z,5180
2018-06-13T15:02:34.044Z,5416
2018-06-13T15:03:42.682Z,5544
2018-06-13T15:04:51.335Z,5544
2018-06-13T15:05:59.984Z,5420
2018-06-13T15:07:08.636Z,5272
2018-06-13T15:08:17.805Z,5108
2018-06-13T15:09:26.365Z,4976
2018-06-13T15:10:35.009Z,4900
2018-06-13T15:11:43.667Z,4748
2018-06-13T15:12:52.315Z,4636
2018-06-13T15:14:00.957Z,4680
2018-06-13T15:15:09.603Z,4640
2018-06-13T15:16:18.537Z,4548
2018-06-13T15:17:27.447Z,4436
2018-06-13T15:18:36.091Z,4232
2018-06-13T15:19:45.009Z,3908
2018-06-13T15:20:53.920Z,3664
2018-06-13T15:22:02.848Z,3624
2018-06-13T15:23:11.489Z,3656
2018-06-13T15:24:20.145Z,3868
2018-06-13T15:25:28.787Z,4120
2018-06-13T15:26:37.447Z,4408
2018-06-13T15:27:46.091Z,4548
2018-06-13T15:28:55.016Z,4488
2018-06-13T15:30:03.657Z,4244
2018-06-13T15:31:12.316Z,4060
2018-06-13T15:32:20.962Z,4008
2018-06-13T15:33:29.616Z,4100
2018-06-13T15:34:38.257Z,4124
2018-06-13T15:35:46.909Z,4016
2018-06-13T15:36:55.564Z,3900